sensor_id;sensor_type;location;lat;lon;timestamp;P1;durP1;ratioP1;P2;durP2;ratioP2
30000;SDS011;16845;48.670;9.000;2023-05-06T00:00:00;10.30;;;3.65;;
30000;SDS011;16845;48.670;9.000;2023-05-06T00:02:28;8.27;;;3.80;;
30000;SDS011;16845;48.670;9.000;2023-05-06T00:04:55;6.88;;;3.63;;
30000;SDS011;16845;48.670;9.000;2023-05-06T00:07:21;6.13;;;3.43;;
30000;SDS011;16845;48.670;9.000;2023-05-06T00:09:48;5.05;;;3.00;;
30000;SDS011;16845;48.670;9.000;2023-05-06T00:12:14;7.80;;;4.07;;
30000;SDS011;16845;48.670;9.000;2023-05-06T00:14:41;5.72;;;3.75;;
30000;SDS011;16845;48.670;9.000;2023-05-06T00:17:07;3.50;;;3.00;;
30000;SDS011;16845;48.670;9.000;2023-05-06T00:19:35;5.63;;;3.30;;
30000;SDS011;16845;48.670;9.000;2023-05-06T00:22:01;4.15;;;3.35;;
30000;SDS011;16845;48.670;9.000;2023-05-06T00:24:28;5.85;;;3.67;;
30000;SDS011;16845;48.670;9.000;2023-05-06T00:26:54;6.20;;;2.80;;
30000;SDS011;16845;48.670;9.000;2023-05-06T00:29:21;9.07;;;2.97;;
30000;SDS011;16845;48.670;9.000;2023-05-06T00:31:47;8.27;;;3.38;;
30000;SDS011;16845;48.670;9.000;2023-05-06T00:34:14;6.88;;;3.38;;
30000;SDS011;16845;48.670;9.000;2023-05-06T00:36:42;5.65;;;2.78;;
30000;SDS011;16845;48.670;9.000;2023-05-06T00:39:08;3.38;;;2.60;;
30000;SDS011;16845;48.670;9.000;2023-05-06T00:41:34;5.55;;;2.15;;
30000;SDS011;16845;48.670;9.000;2023-05-06T00:44:01;5.18;;;2.30;;
30000;SDS011;16845;48.670;9.000;2023-05-06T00:46:27;6.35;;;3.28;;
30000;SDS011;16845;48.670;9.000;2023-05-06T00:48:54;4.25;;;2.70;;
30000;SDS011;16845;48.670;9.000;2023-05-06T00:51:21;6.70;;;2.80;;
30000;SDS011;16845;48.670;9.000;2023-05-06T00:53:49;4.20;;;3.13;;
30000;SDS011;16845;48.670;9.000;2023-05-06T00:56:16;3.05;;;2.75;;
30000;SDS011;16845;48.670;9.000;2023-05-06T00:58:45;9.20;;;2.88;;
30000;SDS011;16845;48.670;9.000;2023-05-06T01:01:13;3.97;;;3.25;;
30000;SDS011;16845;48.670;9.000;2023-05-06T01:03:39;8.05;;;3.13;;
30000;SDS011;16845;48.670;9.000;2023-05-06T01:06:07;5.55;;;3.00;;
30000;SDS011;16845;48.670;9.000;2023-05-06T01:08:45;9.15;;;3.67;;
30000;SDS011;16845;48.670;9.000;2023-05-06T01:11:20;3.38;;;2.70;;
30000;SDS011;16845;48.670;9.000;2023-05-06T01:13:55;4.03;;;2.53;;
30000;SDS011;16845;48.670;9.000;2023-05-06T01:16:25;3.28;;;2.55;;
30000;SDS011;16845;48.670;9.000;2023-05-06T01:18:54;5.38;;;2.55;;
30000;SDS011;16845;48.670;9.000;2023-05-06T01:21:23;9.50;;;2.72;;
30000;SDS011;16845;48.670;9.000;2023-05-06T01:23:53;2.92;;;2.67;;
30000;SDS011;16845;48.670;9.000;2023-05-06T01:26:20;5.75;;;2.63;;
30000;SDS011;16845;48.670;9.000;2023-05-06T01:28:47;3.28;;;2.78;;
30000;SDS011;16845;48.670;9.000;2023-05-06T01:31:16;11.67;;;2.80;;
30000;SDS011;16845;48.670;9.000;2023-05-06T01:33:50;4.82;;;2.92;;
30000;SDS011;16845;48.670;9.000;2023-05-06T01:36:25;3.85;;;2.67;;
30000;SDS011;16845;48.670;9.000;2023-05-06T01:38:56;3.55;;;2.70;;
30000;SDS011;16845;48.670;9.000;2023-05-06T01:41:26;5.78;;;3.38;;
30000;SDS011;16845;48.670;9.000;2023-05-06T01:43:53;5.10;;;3.40;;
30000;SDS011;16845;48.670;9.000;2023-05-06T01:46:21;5.25;;;3.83;;
30000;SDS011;16845;48.670;9.000;2023-05-06T01:48:51;7.75;;;3.20;;
30000;SDS011;16845;48.670;9.000;2023-05-06T01:51:20;3.83;;;2.90;;
30000;SDS011;16845;48.670;9.000;2023-05-06T01:53:46;4.70;;;3.10;;
30000;SDS011;16845;48.670;9.000;2023-05-06T01:56:14;10.57;;;3.13;;
30000;SDS011;16845;48.670;9.000;2023-05-06T01:58:41;4.50;;;3.30;;
30000;SDS011;16845;48.670;9.000;2023-05-06T02:01:07;4.53;;;2.77;;
30000;SDS011;16845;48.670;9.000;2023-05-06T02:03:34;3.00;;;2.65;;
30000;SDS011;16845;48.670;9.000;2023-05-06T02:06:00;9.23;;;3.58;;
30000;SDS011;16845;48.670;9.000;2023-05-06T02:08:27;6.05;;;3.05;;
30000;SDS011;16845;48.670;9.000;2023-05-06T02:10:53;11.90;;;3.95;;
30000;SDS011;16845;48.670;9.000;2023-05-06T02:13:21;5.30;;;2.60;;
30000;SDS011;16845;48.670;9.000;2023-05-06T02:15:50;3.67;;;2.70;;
30000;SDS011;16845;48.670;9.000;2023-05-06T02:18:17;4.53;;;2.83;;
30000;SDS011;16845;48.670;9.000;2023-05-06T02:20:44;6.38;;;2.92;;
30000;SDS011;16845;48.670;9.000;2023-05-06T02:23:10;5.03;;;3.42;;
30000;SDS011;16845;48.670;9.000;2023-05-06T02:25:36;5.82;;;2.83;;
30000;SDS011;16845;48.670;9.000;2023-05-06T02:28:03;6.22;;;3.15;;
30000;SDS011;16845;48.670;9.000;2023-05-06T02:30:31;6.40;;;3.53;;
30000;SDS011;16845;48.670;9.000;2023-05-06T02:32:57;4.57;;;3.45;;
30000;SDS011;16845;48.670;9.000;2023-05-06T02:35:24;4.53;;;3.40;;
30000;SDS011;16845;48.670;9.000;2023-05-06T02:37:50;6.45;;;2.95;;
30000;SDS011;16845;48.670;9.000;2023-05-06T02:40:17;7.47;;;3.30;;
30000;SDS011;16845;48.670;9.000;2023-05-06T02:42:43;4.38;;;2.88;;
30000;SDS011;16845;48.670;9.000;2023-05-06T02:45:10;4.47;;;3.05;;
30000;SDS011;16845;48.670;9.000;2023-05-06T02:47:38;5.68;;;3.30;;
30000;SDS011;16845;48.670;9.000;2023-05-06T02:50:05;4.38;;;3.55;;
30000;SDS011;16845;48.670;9.000;2023-05-06T02:52:32;8.13;;;4.30;;
30000;SDS011;16845;48.670;9.000;2023-05-06T02:54:58;4.07;;;3.13;;
30000;SDS011;16845;48.670;9.000;2023-05-06T02:57:25;6.18;;;4.10;;
30000;SDS011;16845;48.670;9.000;2023-05-06T02:59:51;4.03;;;3.00;;
30000;SDS011;16845;48.670;9.000;2023-05-06T03:02:18;5.80;;;3.80;;
30000;SDS011;16845;48.670;9.000;2023-05-06T03:04:46;3.97;;;3.42;;
30000;SDS011;16845;48.670;9.000;2023-05-06T03:07:12;4.68;;;3.50;;
30000;SDS011;16845;48.670;9.000;2023-05-06T03:09:38;5.93;;;3.95;;
30000;SDS011;16845;48.670;9.000;2023-05-06T03:12:05;8.63;;;3.70;;
30000;SDS011;16845;48.670;9.000;2023-05-06T03:14:31;8.60;;;4.60;;
30000;SDS011;16845;48.670;9.000;2023-05-06T03:16:58;4.43;;;3.85;;
30000;SDS011;16845;48.670;9.000;2023-05-06T03:19:24;8.30;;;3.83;;
30000;SDS011;16845;48.670;9.000;2023-05-06T03:21:52;9.35;;;3.92;;
30000;SDS011;16845;48.670;9.000;2023-05-06T03:24:19;5.75;;;4.40;;
30000;SDS011;16845;48.670;9.000;2023-05-06T03:26:45;12.10;;;6.28;;
30000;SDS011;16845;48.670;9.000;2023-05-06T03:29:12;10.82;;;4.47;;
30000;SDS011;16845;48.670;9.000;2023-05-06T03:31:38;10.30;;;4.57;;
30000;SDS011;16845;48.670;9.000;2023-05-06T03:34:05;5.30;;;4.22;;
30000;SDS011;16845;48.670;9.000;2023-05-06T03:36:31;7.53;;;5.00;;
30000;SDS011;16845;48.670;9.000;2023-05-06T03:38:59;7.35;;;4.85;;
30000;SDS011;16845;48.670;9.000;2023-05-06T03:41:25;5.30;;;4.55;;
30000;SDS011;16845;48.670;9.000;2023-05-06T03:43:52;6.67;;;4.70;;
30000;SDS011;16845;48.670;9.000;2023-05-06T03:46:18;7.28;;;5.03;;
30000;SDS011;16845;48.670;9.000;2023-05-06T03:48:45;9.93;;;5.65;;
30000;SDS011;16845;48.670;9.000;2023-05-06T03:51:11;5.75;;;4.97;;
30000;SDS011;16845;48.670;9.000;2023-05-06T03:53:38;7.03;;;5.67;;
30000;SDS011;16845;48.670;9.000;2023-05-06T03:56:06;8.23;;;5.63;;
30000;SDS011;16845;48.670;9.000;2023-05-06T03:58:33;9.50;;;5.13;;
30000;SDS011;16845;48.670;9.000;2023-05-06T04:01:00;11.65;;;5.68;;
30000;SDS011;16845;48.670;9.000;2023-05-06T04:03:27;6.45;;;5.72;;
30000;SDS011;16845;48.670;9.000;2023-05-06T04:05:53;9.48;;;5.68;;
30000;SDS011;16845;48.670;9.000;2023-05-06T04:08:20;6.55;;;5.72;;
30000;SDS011;16845;48.670;9.000;2023-05-06T04:10:46;8.77;;;5.97;;
30000;SDS011;16845;48.670;9.000;2023-05-06T04:13:14;20.60;;;6.57;;
30000;SDS011;16845;48.670;9.000;2023-05-06T04:15:41;10.75;;;6.90;;
30000;SDS011;16845;48.670;9.000;2023-05-06T04:18:07;10.20;;;5.85;;
30000;SDS011;16845;48.670;9.000;2023-05-06T04:20:34;12.05;;;7.28;;
30000;SDS011;16845;48.670;9.000;2023-05-06T04:23:00;6.80;;;6.00;;
30000;SDS011;16845;48.670;9.000;2023-05-06T04:25:27;8.98;;;6.40;;
30000;SDS011;16845;48.670;9.000;2023-05-06T04:27:53;19.33;;;7.55;;
30000;SDS011;16845;48.670;9.000;2023-05-06T04:30:21;7.45;;;6.15;;
30000;SDS011;16845;48.670;9.000;2023-05-06T04:32:47;8.07;;;6.60;;
30000;SDS011;16845;48.670;9.000;2023-05-06T04:35:14;10.88;;;7.38;;
30000;SDS011;16845;48.670;9.000;2023-05-06T04:37:40;8.05;;;6.80;;
30000;SDS011;16845;48.670;9.000;2023-05-06T04:40:07;15.02;;;7.30;;
30000;SDS011;16845;48.670;9.000;2023-05-06T04:42:34;10.15;;;7.65;;
30000;SDS011;16845;48.670;9.000;2023-05-06T04:45:01;10.60;;;7.15;;
30000;SDS011;16845;48.670;9.000;2023-05-06T04:47:29;13.05;;;8.27;;
30000;SDS011;16845;48.670;9.000;2023-05-06T04:49:55;12.93;;;7.22;;
30000;SDS011;16845;48.670;9.000;2023-05-06T04:52:21;9.40;;;6.78;;
30000;SDS011;16845;48.670;9.000;2023-05-06T04:54:48;8.70;;;7.05;;
30000;SDS011;16845;48.670;9.000;2023-05-06T04:57:14;8.65;;;7.75;;
30000;SDS011;16845;48.670;9.000;2023-05-06T04:59:41;7.93;;;7.13;;
30000;SDS011;16845;48.670;9.000;2023-05-06T05:02:07;9.73;;;7.45;;
30000;SDS011;16845;48.670;9.000;2023-05-06T05:04:35;9.68;;;6.65;;
30000;SDS011;16845;48.670;9.000;2023-05-06T05:07:01;10.13;;;6.50;;
30000;SDS011;16845;48.670;9.000;2023-05-06T05:09:28;7.93;;;5.68;;
30000;SDS011;16845;48.670;9.000;2023-05-06T05:11:54;13.65;;;7.05;;
30000;SDS011;16845;48.670;9.000;2023-05-06T05:14:21;7.50;;;6.15;;
30000;SDS011;16845;48.670;9.000;2023-05-06T05:16:47;11.80;;;5.65;;
30000;SDS011;16845;48.670;9.000;2023-05-06T05:19:14;7.53;;;6.15;;
30000;SDS011;16845;48.670;9.000;2023-05-06T05:21:41;7.13;;;5.40;;
30000;SDS011;16845;48.670;9.000;2023-05-06T05:24:08;7.38;;;5.38;;
30000;SDS011;16845;48.670;9.000;2023-05-06T05:26:34;8.88;;;5.38;;
30000;SDS011;16845;48.670;9.000;2023-05-06T05:29:01;9.45;;;5.10;;
30000;SDS011;16845;48.670;9.000;2023-05-06T05:31:27;8.32;;;4.47;;
30000;SDS011;16845;48.670;9.000;2023-05-06T05:33:54;7.50;;;4.82;;
30000;SDS011;16845;48.670;9.000;2023-05-06T05:36:20;6.13;;;4.73;;
30000;SDS011;16845;48.670;9.000;2023-05-06T05:38:48;7.00;;;4.03;;
30000;SDS011;16845;48.670;9.000;2023-05-06T05:41:15;6.90;;;4.30;;
30000;SDS011;16845;48.670;9.000;2023-05-06T05:43:42;10.55;;;4.15;;
30000;SDS011;16845;48.670;9.000;2023-05-06T05:46:09;5.25;;;3.30;;
30000;SDS011;16845;48.670;9.000;2023-05-06T05:48:35;4.38;;;3.28;;
30000;SDS011;16845;48.670;9.000;2023-05-06T05:51:02;10.57;;;3.22;;
30000;SDS011;16845;48.670;9.000;2023-05-06T05:53:29;8.57;;;3.17;;
30000;SDS011;16845;48.670;9.000;2023-05-06T05:55:56;4.60;;;3.00;;
30000;SDS011;16845;48.670;9.000;2023-05-06T05:58:23;5.32;;;2.95;;
30000;SDS011;16845;48.670;9.000;2023-05-06T06:00:49;5.43;;;2.73;;
30000;SDS011;16845;48.670;9.000;2023-05-06T06:03:16;4.90;;;2.80;;
30000;SDS011;16845;48.670;9.000;2023-05-06T06:05:43;5.50;;;2.95;;
30000;SDS011;16845;48.670;9.000;2023-05-06T06:08:09;7.60;;;2.57;;
30000;SDS011;16845;48.670;9.000;2023-05-06T06:10:36;4.50;;;2.55;;
30000;SDS011;16845;48.670;9.000;2023-05-06T06:13:04;5.07;;;3.03;;
30000;SDS011;16845;48.670;9.000;2023-05-06T06:15:30;3.65;;;2.78;;
30000;SDS011;16845;48.670;9.000;2023-05-06T06:17:57;3.78;;;2.70;;
30000;SDS011;16845;48.670;9.000;2023-05-06T06:20:23;2.97;;;2.70;;
30000;SDS011;16845;48.670;9.000;2023-05-06T06:22:49;6.30;;;2.85;;
30000;SDS011;16845;48.670;9.000;2023-05-06T06:25:16;4.85;;;2.85;;
30000;SDS011;16845;48.670;9.000;2023-05-06T06:27:42;4.82;;;2.30;;
30000;SDS011;16845;48.670;9.000;2023-05-06T06:30:10;3.15;;;2.60;;
30000;SDS011;16845;48.670;9.000;2023-05-06T06:32:46;3.88;;;2.30;;
30000;SDS011;16845;48.670;9.000;2023-05-06T06:35:13;7.53;;;2.47;;
30000;SDS011;16845;48.670;9.000;2023-05-06T06:37:40;5.57;;;2.63;;
30000;SDS011;16845;48.670;9.000;2023-05-06T06:40:07;10.15;;;3.20;;
30000;SDS011;16845;48.670;9.000;2023-05-06T06:42:34;10.00;;;2.53;;
30000;SDS011;16845;48.670;9.000;2023-05-06T06:45:00;7.55;;;3.13;;
30000;SDS011;16845;48.670;9.000;2023-05-06T06:47:28;5.70;;;2.15;;
30000;SDS011;16845;48.670;9.000;2023-05-06T06:49:55;5.82;;;2.80;;
30000;SDS011;16845;48.670;9.000;2023-05-06T06:52:21;9.20;;;2.50;;
30000;SDS011;16845;48.670;9.000;2023-05-06T06:54:48;5.53;;;2.22;;
30000;SDS011;16845;48.670;9.000;2023-05-06T06:57:14;5.60;;;2.20;;
30000;SDS011;16845;48.670;9.000;2023-05-06T06:59:40;2.55;;;2.33;;
30000;SDS011;16845;48.670;9.000;2023-05-06T07:02:07;5.57;;;2.55;;
30000;SDS011;16845;48.670;9.000;2023-05-06T07:04:35;2.78;;;2.20;;
30000;SDS011;16845;48.670;9.000;2023-05-06T07:07:01;6.43;;;2.72;;
30000;SDS011;16845;48.670;9.000;2023-05-06T07:09:28;2.67;;;2.20;;
30000;SDS011;16845;48.670;9.000;2023-05-06T07:11:54;2.38;;;1.95;;
30000;SDS011;16845;48.670;9.000;2023-05-06T07:14:20;3.58;;;2.10;;
30000;SDS011;16845;48.670;9.000;2023-05-06T07:16:47;5.57;;;2.30;;
30000;SDS011;16845;48.670;9.000;2023-05-06T07:19:16;3.08;;;2.33;;
30000;SDS011;16845;48.670;9.000;2023-05-06T07:21:44;3.88;;;2.30;;
30000;SDS011;16845;48.670;9.000;2023-05-06T07:24:10;3.28;;;1.83;;
30000;SDS011;16845;48.670;9.000;2023-05-06T07:26:38;3.00;;;2.53;;
30000;SDS011;16845;48.670;9.000;2023-05-06T07:31:31;5.65;;;2.70;;
30000;SDS011;16845;48.670;9.000;2023-05-06T07:33:58;4.93;;;1.83;;
30000;SDS011;16845;48.670;9.000;2023-05-06T07:36:25;2.33;;;1.73;;
30000;SDS011;16845;48.670;9.000;2023-05-06T07:38:53;4.72;;;1.80;;
30000;SDS011;16845;48.670;9.000;2023-05-06T07:41:19;6.55;;;1.35;;
30000;SDS011;16845;48.670;9.000;2023-05-06T07:43:45;2.63;;;1.13;;
30000;SDS011;16845;48.670;9.000;2023-05-06T07:46:12;5.03;;;1.48;;
30000;SDS011;16845;48.670;9.000;2023-05-06T07:48:38;4.23;;;1.53;;
30000;SDS011;16845;48.670;9.000;2023-05-06T07:51:05;5.85;;;2.20;;
30000;SDS011;16845;48.670;9.000;2023-05-06T07:53:31;3.33;;;2.10;;
30000;SDS011;16845;48.670;9.000;2023-05-06T07:55:59;3.33;;;1.48;;
30000;SDS011;16845;48.670;9.000;2023-05-06T07:58:26;5.35;;;2.00;;
30000;SDS011;16845;48.670;9.000;2023-05-06T08:00:52;1.85;;;1.63;;
30000;SDS011;16845;48.670;9.000;2023-05-06T08:03:19;3.63;;;1.90;;
30000;SDS011;16845;48.670;9.000;2023-05-06T08:05:45;6.63;;;1.43;;
30000;SDS011;16845;48.670;9.000;2023-05-06T08:08:12;2.60;;;2.15;;
30000;SDS011;16845;48.670;9.000;2023-05-06T08:10:38;5.20;;;1.67;;
30000;SDS011;16845;48.670;9.000;2023-05-06T08:13:06;5.63;;;1.23;;
30000;SDS011;16845;48.670;9.000;2023-05-06T08:15:33;4.57;;;1.05;;
30000;SDS011;16845;48.670;9.000;2023-05-06T08:17:59;3.97;;;1.20;;
30000;SDS011;16845;48.670;9.000;2023-05-06T08:20:43;1.52;;;1.20;;
30000;SDS011;16845;48.670;9.000;2023-05-06T08:23:10;4.07;;;1.87;;
30000;SDS011;16845;48.670;9.000;2023-05-06T08:25:36;2.85;;;1.52;;
30000;SDS011;16845;48.670;9.000;2023-05-06T08:28:02;1.27;;;1.15;;
30000;SDS011;16845;48.670;9.000;2023-05-06T08:30:30;7.30;;;2.00;;
30000;SDS011;16845;48.670;9.000;2023-05-06T08:32:57;2.00;;;1.50;;
30000;SDS011;16845;48.670;9.000;2023-05-06T08:35:23;5.50;;;0.95;;
30000;SDS011;16845;48.670;9.000;2023-05-06T08:37:50;2.13;;;1.25;;
30000;SDS011;16845;48.670;9.000;2023-05-06T08:40:16;5.43;;;2.63;;
30000;SDS011;16845;48.670;9.000;2023-05-06T08:42:44;4.85;;;1.40;;
30000;SDS011;16845;48.670;9.000;2023-05-06T08:45:11;3.75;;;0.90;;
30000;SDS011;16845;48.670;9.000;2023-05-06T08:47:39;1.43;;;0.93;;
30000;SDS011;16845;48.670;9.000;2023-05-06T08:50:07;1.95;;;1.10;;
30000;SDS011;16845;48.670;9.000;2023-05-06T08:52:34;3.60;;;1.13;;
30000;SDS011;16845;48.670;9.000;2023-05-06T08:55:01;4.78;;;1.00;;
30000;SDS011;16845;48.670;9.000;2023-05-06T08:57:28;1.70;;;1.00;;
30000;SDS011;16845;48.670;9.000;2023-05-06T08:59:55;1.25;;;0.70;;
30000;SDS011;16845;48.670;9.000;2023-05-06T09:02:22;1.67;;;1.00;;
30000;SDS011;16845;48.670;9.000;2023-05-06T09:07:19;3.42;;;1.10;;
30000;SDS011;16845;48.670;9.000;2023-05-06T09:09:45;4.28;;;1.20;;
30000;SDS011;16845;48.670;9.000;2023-05-06T09:12:12;1.58;;;1.20;;
30000;SDS011;16845;48.670;9.000;2023-05-06T09:14:39;3.80;;;1.33;;
30000;SDS011;16845;48.670;9.000;2023-05-06T09:17:15;1.75;;;0.98;;
30000;SDS011;16845;48.670;9.000;2023-05-06T09:19:43;1.35;;;0.80;;
30000;SDS011;16845;48.670;9.000;2023-05-06T09:22:10;1.75;;;1.08;;
30000;SDS011;16845;48.670;9.000;2023-05-06T09:24:37;1.80;;;0.80;;
30000;SDS011;16845;48.670;9.000;2023-05-06T09:27:03;4.68;;;1.20;;
30000;SDS011;16845;48.670;9.000;2023-05-06T09:29:30;1.75;;;1.02;;
30000;SDS011;16845;48.670;9.000;2023-05-06T09:31:56;1.98;;;1.23;;
30000;SDS011;16845;48.670;9.000;2023-05-06T09:34:23;7.63;;;1.23;;
30000;SDS011;16845;48.670;9.000;2023-05-06T09:36:51;1.33;;;0.90;;
30000;SDS011;16845;48.670;9.000;2023-05-06T09:39:19;4.43;;;0.90;;
30000;SDS011;16845;48.670;9.000;2023-05-06T09:41:50;1.15;;;1.00;;
30000;SDS011;16845;48.670;9.000;2023-05-06T09:44:16;2.57;;;1.00;;
30000;SDS011;16845;48.670;9.000;2023-05-06T09:46:43;3.92;;;1.15;;
30000;SDS011;16845;48.670;9.000;2023-05-06T09:49:10;1.83;;;0.85;;
30000;SDS011;16845;48.670;9.000;2023-05-06T09:54:03;4.80;;;0.80;;
30000;SDS011;16845;48.670;9.000;2023-05-06T09:56:32;2.88;;;0.80;;
30000;SDS011;16845;48.670;9.000;2023-05-06T09:58:59;3.30;;;0.80;;
30000;SDS011;16845;48.670;9.000;2023-05-06T10:01:26;1.00;;;0.75;;
30000;SDS011;16845;48.670;9.000;2023-05-06T10:04:03;3.33;;;0.68;;
30000;SDS011;16845;48.670;9.000;2023-05-06T10:06:33;3.78;;;0.98;;
30000;SDS011;16845;48.670;9.000;2023-05-06T10:09:01;1.90;;;0.70;;
30000;SDS011;16845;48.670;9.000;2023-05-06T10:11:28;1.75;;;0.90;;
30000;SDS011;16845;48.670;9.000;2023-05-06T10:13:56;3.38;;;0.80;;
30000;SDS011;16845;48.670;9.000;2023-05-06T10:16:25;2.05;;;1.00;;
30000;SDS011;16845;48.670;9.000;2023-05-06T10:18:53;0.80;;;0.60;;
30000;SDS011;16845;48.670;9.000;2023-05-06T10:21:21;2.35;;;1.15;;
30000;SDS011;16845;48.670;9.000;2023-05-06T10:23:50;0.80;;;0.60;;
30000;SDS011;16845;48.670;9.000;2023-05-06T10:26:22;5.63;;;0.90;;
30000;SDS011;16845;48.670;9.000;2023-05-06T10:28:50;1.50;;;0.80;;
30000;SDS011;16845;48.670;9.000;2023-05-06T10:31:19;4.82;;;1.02;;
30000;SDS011;16845;48.670;9.000;2023-05-06T10:33:47;2.03;;;0.90;;
30000;SDS011;16845;48.670;9.000;2023-05-06T10:36:16;2.40;;;1.20;;
30000;SDS011;16845;48.670;9.000;2023-05-06T10:38:45;1.33;;;0.73;;
30000;SDS011;16845;48.670;9.000;2023-05-06T10:41:15;1.05;;;0.65;;
30000;SDS011;16845;48.670;9.000;2023-05-06T10:43:43;3.20;;;0.73;;
30000;SDS011;16845;48.670;9.000;2023-05-06T10:48:39;6.03;;;1.77;;
30000;SDS011;16845;48.670;9.000;2023-05-06T10:51:26;1.65;;;1.00;;
30000;SDS011;16845;48.670;9.000;2023-05-06T10:53:56;6.47;;;2.03;;
30000;SDS011;16845;48.670;9.000;2023-05-06T10:56:24;2.00;;;0.80;;
30000;SDS011;16845;48.670;9.000;2023-05-06T11:01:20;3.15;;;1.80;;
30000;SDS011;16845;48.670;9.000;2023-05-06T11:03:48;1.33;;;0.75;;
30000;SDS011;16845;48.670;9.000;2023-05-06T11:06:30;1.88;;;0.80;;
30000;SDS011;16845;48.670;9.000;2023-05-06T11:08:57;1.73;;;0.68;;
30000;SDS011;16845;48.670;9.000;2023-05-06T11:11:46;3.60;;;1.00;;
30000;SDS011;16845;48.670;9.000;2023-05-06T11:14:24;1.55;;;0.60;;
30000;SDS011;16845;48.670;9.000;2023-05-06T11:16:53;1.08;;;0.57;;
30000;SDS011;16845;48.670;9.000;2023-05-06T11:19:22;4.13;;;0.70;;
30000;SDS011;16845;48.670;9.000;2023-05-06T11:21:49;2.10;;;0.70;;
30000;SDS011;16845;48.670;9.000;2023-05-06T11:24:21;2.05;;;0.80;;
30000;SDS011;16845;48.670;9.000;2023-05-06T11:26:49;1.45;;;0.80;;
30000;SDS011;16845;48.670;9.000;2023-05-06T11:29:16;1.98;;;1.02;;
30000;SDS011;16845;48.670;9.000;2023-05-06T11:31:42;1.60;;;1.00;;
30000;SDS011;16845;48.670;9.000;2023-05-06T11:34:11;9.02;;;1.10;;
30000;SDS011;16845;48.670;9.000;2023-05-06T11:36:47;2.03;;;0.80;;
30000;SDS011;16845;48.670;9.000;2023-05-06T11:39:14;2.15;;;1.08;;
30000;SDS011;16845;48.670;9.000;2023-05-06T11:41:40;2.33;;;1.08;;
30000;SDS011;16845;48.670;9.000;2023-05-06T11:44:07;1.45;;;0.82;;
30000;SDS011;16845;48.670;9.000;2023-05-06T11:46:36;1.02;;;0.93;;
30000;SDS011;16845;48.670;9.000;2023-05-06T11:51:30;7.93;;;1.20;;
30000;SDS011;16845;48.670;9.000;2023-05-06T11:54:04;0.88;;;0.82;;
30000;SDS011;16845;48.670;9.000;2023-05-06T11:56:45;3.28;;;0.80;;
30000;SDS011;16845;48.670;9.000;2023-05-06T11:59:13;3.55;;;0.80;;
30000;SDS011;16845;48.670;9.000;2023-05-06T12:04:08;1.90;;;0.80;;
30000;SDS011;16845;48.670;9.000;2023-05-06T12:06:35;4.15;;;0.90;;
30000;SDS011;16845;48.670;9.000;2023-05-06T12:09:03;2.72;;;0.70;;
30000;SDS011;16845;48.670;9.000;2023-05-06T12:11:33;4.00;;;1.00;;
30000;SDS011;16845;48.670;9.000;2023-05-06T12:14:00;4.63;;;1.10;;
30000;SDS011;16845;48.670;9.000;2023-05-06T12:16:28;4.32;;;1.55;;
30000;SDS011;16845;48.670;9.000;2023-05-06T12:18:55;3.53;;;1.45;;
30000;SDS011;16845;48.670;9.000;2023-05-06T12:21:21;3.47;;;0.80;;
30000;SDS011;16845;48.670;9.000;2023-05-06T12:23:52;1.85;;;1.05;;
30000;SDS011;16845;48.670;9.000;2023-05-06T12:26:20;1.15;;;0.90;;
30000;SDS011;16845;48.670;9.000;2023-05-06T12:29:02;1.92;;;0.85;;
30000;SDS011;16845;48.670;9.000;2023-05-06T12:31:30;1.92;;;1.05;;
30000;SDS011;16845;48.670;9.000;2023-05-06T12:33:56;2.13;;;1.27;;
30000;SDS011;16845;48.670;9.000;2023-05-06T12:36:26;1.35;;;0.73;;
30000;SDS011;16845;48.670;9.000;2023-05-06T12:38:53;1.52;;;0.90;;
30000;SDS011;16845;48.670;9.000;2023-05-06T12:41:22;1.90;;;0.90;;
30000;SDS011;16845;48.670;9.000;2023-05-06T12:43:50;2.67;;;0.90;;
30000;SDS011;16845;48.670;9.000;2023-05-06T12:46:17;1.85;;;0.85;;
30000;SDS011;16845;48.670;9.000;2023-05-06T12:48:59;3.92;;;1.40;;
30000;SDS011;16845;48.670;9.000;2023-05-06T12:51:27;4.70;;;1.10;;
30000;SDS011;16845;48.670;9.000;2023-05-06T12:53:54;1.15;;;0.80;;
30000;SDS011;16845;48.670;9.000;2023-05-06T12:56:22;3.92;;;1.27;;
30000;SDS011;16845;48.670;9.000;2023-05-06T12:58:55;2.17;;;1.17;;
30000;SDS011;16845;48.670;9.000;2023-05-06T13:01:25;3.20;;;1.25;;
30000;SDS011;16845;48.670;9.000;2023-05-06T13:03:53;4.07;;;0.90;;
30000;SDS011;16845;48.670;9.000;2023-05-06T13:06:20;4.70;;;1.00;;
30000;SDS011;16845;48.670;9.000;2023-05-06T13:08:46;2.22;;;1.20;;
30000;SDS011;16845;48.670;9.000;2023-05-06T13:11:13;3.95;;;1.10;;
30000;SDS011;16845;48.670;9.000;2023-05-06T13:13:41;3.80;;;1.00;;
30000;SDS011;16845;48.670;9.000;2023-05-06T13:16:07;1.75;;;0.70;;
30000;SDS011;16845;48.670;9.000;2023-05-06T13:18:34;0.73;;;0.73;;
30000;SDS011;16845;48.670;9.000;2023-05-06T13:21:00;2.13;;;0.90;;
30000;SDS011;16845;48.670;9.000;2023-05-06T13:23:27;1.80;;;1.40;;
30000;SDS011;16845;48.670;9.000;2023-05-06T13:25:53;1.83;;;0.90;;
30000;SDS011;16845;48.670;9.000;2023-05-06T13:28:31;3.30;;;1.20;;
30000;SDS011;16845;48.670;9.000;2023-05-06T13:30:59;1.88;;;0.80;;
30000;SDS011;16845;48.670;9.000;2023-05-06T13:33:26;2.30;;;1.10;;
30000;SDS011;16845;48.670;9.000;2023-05-06T13:35:52;3.60;;;1.00;;
30000;SDS011;16845;48.670;9.000;2023-05-06T13:38:19;5.93;;;1.27;;
30000;SDS011;16845;48.670;9.000;2023-05-06T13:40:45;1.37;;;1.10;;
30000;SDS011;16845;48.670;9.000;2023-05-06T13:43:12;2.05;;;0.77;;
30000;SDS011;16845;48.670;9.000;2023-05-06T13:45:39;2.40;;;0.93;;
30000;SDS011;16845;48.670;9.000;2023-05-06T13:48:06;5.32;;;1.10;;
30000;SDS011;16845;48.670;9.000;2023-05-06T13:50:33;4.28;;;1.40;;
30000;SDS011;16845;48.670;9.000;2023-05-06T13:52:59;1.40;;;1.30;;
30000;SDS011;16845;48.670;9.000;2023-05-06T13:55:26;2.30;;;1.00;;
30000;SDS011;16845;48.670;9.000;2023-05-06T13:57:52;1.38;;;1.27;;
30000;SDS011;16845;48.670;9.000;2023-05-06T14:00:19;2.95;;;1.30;;
30000;SDS011;16845;48.670;9.000;2023-05-06T14:02:45;4.30;;;1.27;;
30000;SDS011;16845;48.670;9.000;2023-05-06T14:05:13;4.40;;;1.00;;
30000;SDS011;16845;48.670;9.000;2023-05-06T14:07:40;1.85;;;1.10;;
30000;SDS011;16845;48.670;9.000;2023-05-06T14:10:07;3.90;;;1.00;;
30000;SDS011;16845;48.670;9.000;2023-05-06T14:12:34;2.67;;;1.35;;
30000;SDS011;16845;48.670;9.000;2023-05-06T14:15:01;3.10;;;0.88;;
30000;SDS011;16845;48.670;9.000;2023-05-06T14:17:27;2.97;;;1.13;;
30000;SDS011;16845;48.670;9.000;2023-05-06T14:19:54;4.03;;;1.40;;
30000;SDS011;16845;48.670;9.000;2023-05-06T14:22:21;1.27;;;0.90;;
30000;SDS011;16845;48.670;9.000;2023-05-06T14:24:48;2.72;;;1.25;;
30000;SDS011;16845;48.670;9.000;2023-05-06T14:27:14;2.20;;;1.10;;
30000;SDS011;16845;48.670;9.000;2023-05-06T14:29:41;2.45;;;1.52;;
30000;SDS011;16845;48.670;9.000;2023-05-06T14:32:07;1.20;;;1.08;;
30000;SDS011;16845;48.670;9.000;2023-05-06T14:34:34;2.30;;;0.90;;
30000;SDS011;16845;48.670;9.000;2023-05-06T14:37:00;3.15;;;1.10;;
30000;SDS011;16845;48.670;9.000;2023-05-06T14:39:28;1.98;;;1.02;;
30000;SDS011;16845;48.670;9.000;2023-05-06T14:41:55;5.32;;;1.67;;
30000;SDS011;16845;48.670;9.000;2023-05-06T14:44:21;3.33;;;1.33;;
30000;SDS011;16845;48.670;9.000;2023-05-06T14:46:48;1.85;;;1.10;;
30000;SDS011;16845;48.670;9.000;2023-05-06T14:49:14;1.97;;;1.20;;
30000;SDS011;16845;48.670;9.000;2023-05-06T14:51:41;2.83;;;1.67;;
30000;SDS011;16845;48.670;9.000;2023-05-06T14:54:07;2.85;;;1.13;;
30000;SDS011;16845;48.670;9.000;2023-05-06T14:56:35;1.60;;;1.00;;
30000;SDS011;16845;48.670;9.000;2023-05-06T14:59:02;2.30;;;1.23;;
30000;SDS011;16845;48.670;9.000;2023-05-06T15:01:29;1.48;;;1.38;;
30000;SDS011;16845;48.670;9.000;2023-05-06T15:03:56;2.70;;;1.47;;